Time;durP1;ratioP1;P1;durP2;ratioP2;P2;SDS_P1;SDS_P2;PMS_P1;PMS_P2;Temp;Humidity;BMP_temperature;BMP_pressure;BME280_temperature;BME280_humidity;BME280_pressure;Samples;Min_cycle;Max_cycle;Signal;HPM_P1;HPM_P2
2023/05/04 00:01:33;;;;;;;1.25;1.15;;;;;;;;;;5019330;28;20210;-65
2023/05/04 00:04:00;;;;;;;1.00;1.00;;;;;;;;;;5019723;28;20433;-65
2023/05/04 00:06:27;;;;;;;1.00;1.00;;;;;;;;;;5019612;28;20293;-65
2023/05/04 00:08:55;;;;;;;1.00;1.00;;;;;;;;;;5019168;28;20591;-65
2023/05/04 00:11:22;;;;;;;1.40;1.25;;;;;;;;;;5019371;28;20206;-65
2023/05/04 00:13:50;;;;;;;1.05;0.95;;;;;;;;;;5019558;28;20513;-65
2023/05/04 00:16:19;;;;;;;1.10;1.08;;;;;;;;;;5019288;28;20217;-65
2023/05/04 00:18:46;;;;;;;1.00;1.00;;;;;;;;;;5019478;28;20217;-65
2023/05/04 00:21:13;;;;;;;1.08;1.08;;;;;;;;;;5018821;28;20575;-65
2023/05/04 00:23:40;;;;;;;1.10;1.00;;;;;;;;;;5019081;28;20214;-65
2023/05/04 00:26:08;;;;;;;0.95;0.95;;;;;;;;;;5018855;28;20217;-65
2023/05/04 00:28:35;;;;;;;1.48;0.90;;;;;;;;;;5018959;28;20236;-65
2023/05/04 00:31:03;;;;;;;1.20;1.10;;;;;;;;;;5019074;28;20206;-65
2023/05/04 00:33:32;;;;;;;1.20;1.10;;;;;;;;;;5019278;28;20295;-65
2023/05/04 00:35:59;;;;;;;1.20;1.00;;;;;;;;;;5018691;28;20226;-65
2023/05/04 00:38:26;;;;;;;1.15;1.05;;;;;;;;;;5018902;28;20211;-65
2023/05/04 00:40:54;;;;;;;1.10;1.00;;;;;;;;;;5018698;28;20206;-65
2023/05/04 00:43:21;;;;;;;1.27;1.17;;;;;;;;;;5018645;28;20206;-65
2023/05/04 00:45:49;;;;;;;1.20;1.10;;;;;;;;;;5018673;28;20205;-65
2023/05/04 00:48:16;;;;;;;1.02;1.00;;;;;;;;;;5018691;28;20305;-65
2023/05/04 00:50:45;;;;;;;0.80;0.80;;;;;;;;;;5018688;28;20237;-65
2023/05/04 00:53:12;;;;;;;0.93;0.90;;;;;;;;;;5018233;28;20253;-65
2023/05/04 00:55:40;;;;;;;1.00;1.00;;;;;;;;;;5018564;28;20227;-65
2023/05/04 00:58:08;;;;;;;1.20;1.10;;;;;;;;;;5018128;28;20213;-65
2023/05/04 01:00:35;;;;;;;0.90;0.90;;;;;;;;;;5018035;28;20206;-65
2023/05/04 01:03:03;;;;;;;1.27;1.20;;;;;;;;;;5018523;28;20206;-65
2023/05/04 01:05:32;;;;;;;1.00;1.00;;;;;;;;;;5018318;28;20212;-65
2023/05/04 01:08:04;;;;;;;1.10;1.00;;;;;;;;;;5018549;28;20225;-66
2023/05/04 01:10:35;;;;;;;1.13;1.00;;;;;;;;;;5018226;28;20602;-65
2023/05/04 01:13:05;;;;;;;1.20;1.10;;;;;;;;;;5018242;28;20284;-65
2023/05/04 01:15:32;;;;;;;1.05;1.05;;;;;;;;;;5018006;28;20230;-65
2023/05/04 01:18:00;;;;;;;1.00;1.00;;;;;;;;;;5018023;28;20261;-65
2023/05/04 01:20:27;;;;;;;0.80;0.80;;;;;;;;;;5017682;28;20198;-65
2023/05/04 01:22:56;;;;;;;0.85;0.85;;;;;;;;;;5017980;28;20218;-65
2023/05/04 01:25:24;;;;;;;1.15;1.05;;;;;;;;;;5017998;28;20606;-64
2023/05/04 01:27:57;;;;;;;1.20;1.10;;;;;;;;;;5018183;28;20459;-64
2023/05/04 01:30:26;;;;;;;1.00;1.00;;;;;;;;;;5017882;28;20570;-64
2023/05/04 01:32:54;;;;;;;0.90;0.90;;;;;;;;;;5017981;28;20206;-64
2023/05/04 01:35:21;;;;;;;1.27;1.17;;;;;;;;;;5017930;28;20226;-64
2023/05/04 01:37:49;;;;;;;1.67;1.10;;;;;;;;;;5018175;28;20210;-64
2023/05/04 01:40:18;;;;;;;0.90;0.90;;;;;;;;;;5017693;28;20232;-64
2023/05/04 01:42:45;;;;;;;1.00;1.00;;;;;;;;;;5017773;28;20206;-64
2023/05/04 01:45:13;;;;;;;1.00;1.00;;;;;;;;;;5017928;28;20474;-64
2023/05/04 01:47:40;;;;;;;1.10;1.10;;;;;;;;;;5017855;28;20206;-64
2023/05/04 01:50:08;;;;;;;1.13;1.13;;;;;;;;;;5017610;28;20210;-64
2023/05/04 01:52:36;;;;;;;1.40;1.17;;;;;;;;;;5017480;28;20221;-64
2023/05/04 01:55:03;;;;;;;1.38;1.27;;;;;;;;;;5017249;28;20237;-64
2023/05/04 01:57:32;;;;;;;1.00;1.00;;;;;;;;;;5017347;28;20603;-64
2023/05/04 01:59:59;;;;;;;1.02;1.02;;;;;;;;;;5017219;28;20210;-65
2023/05/04 02:02:26;;;;;;;1.10;1.10;;;;;;;;;;5017783;28;20222;-65
2023/05/04 02:04:54;;;;;;;1.17;1.08;;;;;;;;;;5017353;28;20203;-65
2023/05/04 02:07:21;;;;;;;0.80;0.80;;;;;;;;;;5017306;28;20657;-65
2023/05/04 02:09:49;;;;;;;1.20;1.10;;;;;;;;;;5017256;28;20213;-65
2023/05/04 02:12:16;;;;;;;1.23;1.13;;;;;;;;;;5016993;28;20241;-65
2023/05/04 02:14:45;;;;;;;1.27;1.17;;;;;;;;;;5018461;28;20226;-65
2023/05/04 02:17:12;;;;;;;1.20;1.10;;;;;;;;;;5021562;28;20206;-65
2023/05/04 02:19:40;;;;;;;1.20;1.10;;;;;;;;;;5021363;28;20613;-65
2023/05/04 02:22:07;;;;;;;1.10;1.00;;;;;;;;;;5021604;28;20206;-65
2023/05/04 02:24:34;;;;;;;0.95;0.95;;;;;;;;;;5021419;28;20206;-65
2023/05/04 02:27:02;;;;;;;1.00;1.00;;;;;;;;;;5021107;28;20220;-65
2023/05/04 02:29:29;;;;;;;1.15;1.15;;;;;;;;;;5021027;28;20214;-65
2023/05/04 02:31:58;;;;;;;1.23;1.10;;;;;;;;;;5020953;28;20206;-65
2023/05/04 02:34:25;;;;;;;1.25;1.20;;;;;;;;;;5021145;28;20214;-65
2023/05/04 02:36:53;;;;;;;1.20;1.10;;;;;;;;;;5021181;28;20206;-65
2023/05/04 02:39:20;;;;;;;0.93;0.93;;;;;;;;;;5021249;28;20450;-65
2023/05/04 02:41:47;;;;;;;1.00;1.00;;;;;;;;;;5020423;28;20206;-65
2023/05/04 02:44:15;;;;;;;1.27;1.17;;;;;;;;;;5020772;28;20229;-65
2023/05/04 02:46:42;;;;;;;1.50;1.00;;;;;;;;;;5020663;28;20202;-65
2023/05/04 02:49:11;;;;;;;1.05;1.02;;;;;;;;;;5020074;28;20595;-65
2023/05/04 02:51:38;;;;;;;1.40;1.30;;;;;;;;;;5020853;28;20210;-65
2023/05/04 02:54:07;;;;;;;1.08;1.08;;;;;;;;;;5020233;28;20213;-64
2023/05/04 02:56:34;;;;;;;1.02;1.00;;;;;;;;;;5020356;28;20241;-64
2023/05/04 02:59:02;;;;;;;1.30;1.20;;;;;;;;;;5020316;28;20206;-64
2023/05/04 03:01:29;;;;;;;1.00;1.00;;;;;;;;;;5020345;28;20530;-64
2023/05/04 03:03:56;;;;;;;1.10;1.00;;;;;;;;;;5020269;28;20206;-64
2023/05/04 03:06:25;;;;;;;1.10;1.00;;;;;;;;;;5020168;28;20210;-64
2023/05/04 03:08:52;;;;;;;1.13;1.13;;;;;;;;;;5020020;28;20214;-64
2023/05/04 03:11:20;;;;;;;1.30;1.20;;;;;;;;;;5020066;28;20209;-64
2023/05/04 03:13:47;;;;;;;1.98;1.10;;;;;;;;;;5019758;28;20233;-65
2023/05/04 03:16:16;;;;;;;1.23;1.10;;;;;;;;;;5020024;28;20226;-65
2023/05/04 03:18:43;;;;;;;1.27;1.17;;;;;;;;;;5020180;28;20206;-65
2023/05/04 03:21:10;;;;;;;1.08;1.08;;;;;;;;;;5019965;28;20213;-65
2023/05/04 03:23:39;;;;;;;0.93;0.93;;;;;;;;;;5020008;28;20598;-65
2023/05/04 03:26:07;;;;;;;1.30;1.20;;;;;;;;;;5018824;28;20579;-65
2023/05/04 03:28:35;;;;;;;1.20;1.20;;;;;;;;;;5019976;28;20206;-65
2023/05/04 03:31:02;;;;;;;1.23;1.13;;;;;;;;;;5019812;28;20217;-65
2023/05/04 03:33:29;;;;;;;1.00;1.00;;;;;;;;;;5019975;28;20206;-65
2023/05/04 03:35:56;;;;;;;1.00;1.00;;;;;;;;;;5019709;28;20653;-65
2023/05/04 03:38:24;;;;;;;1.20;1.10;;;;;;;;;;5020194;28;20476;-65
2023/05/04 03:40:53;;;;;;;1.20;1.10;;;;;;;;;;5019638;28;20214;-65
2023/05/04 03:43:21;;;;;;;1.20;1.17;;;;;;;;;;5019546;28;20206;-65
2023/05/04 03:45:48;;;;;;;1.00;1.00;;;;;;;;;;5019440;28;20237;-65
2023/05/04 03:48:15;;;;;;;1.10;1.00;;;;;;;;;;5019354;28;20206;-65
2023/05/04 03:50:43;;;;;;;1.15;1.15;;;;;;;;;;5019238;28;20653;-65
2023/05/04 03:53:11;;;;;;;1.20;1.20;;;;;;;;;;5019271;28;20586;-65
2023/05/04 03:55:38;;;;;;;1.10;1.10;;;;;;;;;;5018712;28;20629;-65
2023/05/04 03:58:07;;;;;;;1.10;1.10;;;;;;;;;;5018952;28;20206;-65
2023/05/04 04:00:34;;;;;;;1.30;1.20;;;;;;;;;;5018892;28;20206;-65
2023/05/04 04:03:02;;;;;;;1.10;1.10;;;;;;;;;;5018477;28;20207;-65
2023/05/04 04:05:29;;;;;;;1.15;1.08;;;;;;;;;;5019083;28;20491;-65
2023/05/04 04:07:57;;;;;;;1.10;1.10;;;;;;;;;;5018824;28;20211;-65
2023/05/04 04:10:24;;;;;;;1.10;1.10;;;;;;;;;;5018637;28;20215;-65
2023/05/04 04:12:51;;;;;;;1.23;1.20;;;;;;;;;;5018620;28;20230;-65
2023/05/04 04:15:20;;;;;;;1.02;1.02;;;;;;;;;;5018703;28;20501;-65
2023/05/04 04:17:47;;;;;;;1.27;1.17;;;;;;;;;;5018625;28;20206;-65
2023/05/04 04:20:15;;;;;;;1.35;1.25;;;;;;;;;;5017920;28;20210;-65
2023/05/04 04:22:42;;;;;;;1.15;1.10;;;;;;;;;;5017818;28;20610;-65
2023/05/04 04:25:11;;;;;;;1.35;1.25;;;;;;;;;;5018026;28;20198;-65
2023/05/04 04:27:38;;;;;;;1.20;1.10;;;;;;;;;;5017684;28;20213;-65
2023/05/04 04:30:06;;;;;;;1.27;1.02;;;;;;;;;;5018227;28;20216;-65
2023/05/04 04:32:34;;;;;;;1.10;1.10;;;;;;;;;;5018117;28;20239;-65
2023/05/04 04:35:04;;;;;;;1.33;1.23;;;;;;;;;;5016542;28;20206;-65
2023/05/04 04:37:31;;;;;;;1.02;1.02;;;;;;;;;;5017505;28;20214;-65
2023/05/04 04:39:58;;;;;;;1.30;1.20;;;;;;;;;;5017215;28;20610;-64
2023/05/04 04:42:26;;;;;;;1.25;1.15;;;;;;;;;;5017478;28;20213;-64
2023/05/04 04:44:53;;;;;;;1.10;1.10;;;;;;;;;;5016626;28;20654;-64
2023/05/04 04:47:20;;;;;;;1.17;1.13;;;;;;;;;;5016777;28;20202;-64
2023/05/04 04:49:48;;;;;;;1.10;1.10;;;;;;;;;;5017002;28;20206;-64
2023/05/04 04:52:17;;;;;;;1.20;1.10;;;;;;;;;;5016855;28;20207;-64
2023/05/04 04:54:45;;;;;;;1.05;1.05;;;;;;;;;;5016677;28;20202;-64
2023/05/04 04:57:12;;;;;;;1.30;1.20;;;;;;;;;;5015492;28;20292;-64
2023/05/04 04:59:40;;;;;;;1.40;1.30;;;;;;;;;;5016542;28;20489;-64
2023/05/04 05:02:08;;;;;;;1.00;1.00;;;;;;;;;;5015851;28;20220;-64
2023/05/04 05:04:35;;;;;;;1.20;1.13;;;;;;;;;;5016197;28;20207;-64
2023/05/04 05:07:03;;;;;;;1.23;1.13;;;;;;;;;;5015663;28;20207;-64
2023/05/04 05:09:31;;;;;;;1.50;1.40;;;;;;;;;;5014588;28;20745;-64
2023/05/04 05:11:59;;;;;;;1.25;1.15;;;;;;;;;;5015567;28;20261;-64
2023/05/04 05:14:27;;;;;;;1.30;1.20;;;;;;;;;;5016163;28;20206;-65
2023/05/04 05:16:55;;;;;;;1.50;1.40;;;;;;;;;;5016081;28;20319;-65
2023/05/04 05:19:22;;;;;;;1.38;1.27;;;;;;;;;;5014558;28;20731;-64
2023/05/04 05:21:49;;;;;;;1.02;1.02;;;;;;;;;;5016193;28;20213;-64
2023/05/04 05:24:17;;;;;;;1.27;1.25;;;;;;;;;;5014702;28;20213;-64
2023/05/04 05:26:45;;;;;;;1.13;1.13;;;;;;;;;;5015802;28;20226;-64
2023/05/04 05:29:13;;;;;;;1.40;1.30;;;;;;;;;;5015917;28;20217;-65
2023/05/04 05:31:41;;;;;;;1.27;1.20;;;;;;;;;;5014519;28;20506;-65
2023/05/04 05:34:08;;;;;;;1.20;1.10;;;;;;;;;;5015109;28;20210;-65
2023/05/04 05:36:35;;;;;;;1.48;1.38;;;;;;;;;;5015220;28;20226;-65
2023/05/04 05:39:04;;;;;;;1.35;1.25;;;;;;;;;;5015532;28;20213;-65
2023/05/04 05:41:31;;;;;;;1.20;1.20;;;;;;;;;;5014310;28;20202;-65
2023/05/04 05:44:00;;;;;;;1.48;1.38;;;;;;;;;;5014576;28;20289;-65
2023/05/04 05:46:28;;;;;;;1.20;1.20;;;;;;;;;;5012952;28;20210;-65
2023/05/04 05:48:56;;;;;;;2.60;1.30;;;;;;;;;;5014894;28;20210;-65
2023/05/04 05:51:23;;;;;;;1.52;1.30;;;;;;;;;;5014105;28;20214;-65
2023/05/04 05:53:50;;;;;;;1.30;1.20;;;;;;;;;;5014376;28;20207;-65
2023/05/04 05:56:18;;;;;;;1.30;1.20;;;;;;;;;;5014426;28;20222;-65
2023/05/04 05:58:46;;;;;;;1.60;1.50;;;;;;;;;;5013640;28;20606;-68
2023/05/04 06:01:14;;;;;;;1.45;1.25;;;;;;;;;;5014544;28;20198;-65
2023/05/04 06:03:42;;;;;;;3.10;1.40;;;;;;;;;;5013302;28;20213;-65
2023/05/04 06:06:09;;;;;;;2.22;1.30;;;;;;;;;;5014396;28;20199;-65
2023/05/04 06:08:36;;;;;;;1.55;1.45;;;;;;;;;;5014483;28;20617;-65
2023/05/04 06:11:05;;;;;;;1.38;1.23;;;;;;;;;;5014096;28;20217;-65
2023/05/04 06:13:32;;;;;;;1.50;1.40;;;;;;;;;;5033168;28;20303;-65
2023/05/04 06:15:59;;;;;;;1.92;1.40;;;;;;;;;;5034736;28;20236;-65
2023/05/04 06:18:28;;;;;;;1.73;1.45;;;;;;;;;;5033857;28;20683;-65
2023/05/04 06:20:59;;;;;;;1.60;1.50;;;;;;;;;;5034359;28;20217;-65
2023/05/04 06:23:27;;;;;;;1.90;1.67;;;;;;;;;;5035207;28;20210;-65
2023/05/04 06:25:55;;;;;;;1.40;1.30;;;;;;;;;;5034852;28;20267;-65
2023/05/04 06:28:22;;;;;;;1.13;1.13;;;;;;;;;;5035213;28;20206;-65
2023/05/04 06:30:50;;;;;;;1.48;1.25;;;;;;;;;;5035463;28;20202;-65
2023/05/04 06:33:17;;;;;;;1.42;1.33;;;;;;;;;;5035581;28;20292;-65
2023/05/04 06:35:46;;;;;;;1.45;1.35;;;;;;;;;;5035010;28;20213;-65
2023/05/04 06:38:14;;;;;;;1.50;1.40;;;;;;;;;;5034712;28;20197;-65
2023/05/04 06:40:41;;;;;;;1.30;1.20;;;;;;;;;;5034296;28;20571;-66
2023/05/04 06:43:08;;;;;;;1.48;1.38;;;;;;;;;;5034737;28;20366;-65
2023/05/04 06:45:35;;;;;;;1.83;1.42;;;;;;;;;;5034500;28;20578;-65
2023/05/04 06:48:03;;;;;;;1.30;1.20;;;;;;;;;;5034272;28;20212;-65
2023/05/04 06:50:31;;;;;;;2.58;1.77;;;;;;;;;;5033903;28;20216;-66
2023/05/04 06:53:05;;;;;;;1.50;1.40;;;;;;;;;;5033847;28;20209;-65
2023/05/04 06:55:32;;;;;;;1.90;1.40;;;;;;;;;;5034304;28;20213;-65
2023/05/04 06:57:59;;;;;;;1.30;1.20;;;;;;;;;;5034124;28;20241;-65
2023/05/04 07:00:27;;;;;;;1.52;1.35;;;;;;;;;;5033737;28;20494;-65
2023/05/04 07:02:54;;;;;;;1.65;1.35;;;;;;;;;;5038422;28;20221;-65
2023/05/04 07:05:22;;;;;;;1.27;1.20;;;;;;;;;;5037688;28;20224;-65
2023/05/04 07:07:50;;;;;;;1.40;1.30;;;;;;;;;;5037297;28;20213;-65
2023/05/04 07:10:19;;;;;;;1.45;1.35;;;;;;;;;;5037830;28;20214;-65
2023/05/04 07:12:47;;;;;;;1.73;1.50;;;;;;;;;;5037044;28;20241;-65
2023/05/04 07:15:14;;;;;;;1.73;1.50;;;;;;;;;;5038090;28;20205;-65
2023/05/04 07:17:42;;;;;;;1.50;1.40;;;;;;;;;;5037592;28;20269;-65
2023/05/04 07:20:10;;;;;;;1.48;1.38;;;;;;;;;;5037745;28;20206;-65
2023/05/04 07:22:37;;;;;;;1.25;1.15;;;;;;;;;;5038121;28;20218;-65
2023/05/04 07:25:05;;;;;;;1.35;1.20;;;;;;;;;;5037428;28;20206;-65
2023/05/04 07:27:34;;;;;;;1.63;1.30;;;;;;;;;;5037549;28;20590;-65
2023/05/04 07:30:02;;;;;;;1.50;1.40;;;;;;;;;;5037912;28;20201;-65
2023/05/04 07:32:30;;;;;;;2.58;1.15;;;;;;;;;;5037903;28;20482;-65
2023/05/04 07:34:57;;;;;;;1.30;1.23;;;;;;;;;;5036880;28;20229;-65
2023/05/04 07:37:24;;;;;;;1.60;1.50;;;;;;;;;;5037171;28;20232;-65
2023/05/04 07:39:52;;;;;;;1.52;1.42;;;;;;;;;;5036784;28;20289;-65
2023/05/04 07:42:19;;;;;;;1.65;1.50;;;;;;;;;;5037765;28;20216;-65
2023/05/04 07:44:48;;;;;;;1.52;1.42;;;;;;;;;;5037006;28;20482;-65
2023/05/04 07:47:15;;;;;;;1.60;1.50;;;;;;;;;;5037499;28;20296;-65
2023/05/04 07:49:43;;;;;;;1.60;1.50;;;;;;;;;;5037099;28;20232;-65
2023/05/04 07:52:10;;;;;;;1.40;1.30;;;;;;;;;;5036840;28;20293;-65
2023/05/04 07:54:37;;;;;;;1.50;1.40;;;;;;;;;;5036758;28;20202;-66
2023/05/04 07:57:06;;;;;;;1.77;1.42;;;;;;;;;;5036328;28;20255;-66
2023/05/04 07:59:34;;;;;;;2.05;1.45;;;;;;;;;;5016082;28;20682;-66
2023/05/04 08:02:03;;;;;;;1.50;1.40;;;;;;;;;;5016464;28;20741;-65
2023/05/04 08:04:30;;;;;;;1.60;1.50;;;;;;;;;;5016900;28;20472;-65
2023/05/04 08:06:57;;;;;;;1.45;1.35;;;;;;;;;;5016425;28;20494;-65
2023/05/04 08:09:25;;;;;;;1.40;1.30;;;;;;;;;;5017216;28;20206;-65
2023/05/04 08:11:52;;;;;;;1.48;1.38;;;;;;;;;;5015968;28;20206;-65
2023/05/04 08:14:20;;;;;;;1.60;1.33;;;;;;;;;;5015935;28;20618;-65
2023/05/04 08:16:47;;;;;;;1.58;1.48;;;;;;;;;;5015868;28;20226;-65
2023/05/04 08:19:16;;;;;;;1.52;1.42;;;;;;;;;;5016088;28;20213;-65
2023/05/04 08:21:43;;;;;;;1.50;1.40;;;;;;;;;;5016347;28;20704;-65
2023/05/04 08:24:11;;;;;;;1.70;1.60;;;;;;;;;;5015533;28;20288;-65
2023/05/04 08:26:38;;;;;;;1.60;1.50;;;;;;;;;;5016040;28;20633;-65
2023/05/04 08:29:07;;;;;;;1.80;1.58;;;;;;;;;;5016340;28;20202;-65
2023/05/04 08:31:34;;;;;;;1.70;1.60;;;;;;;;;;5016770;28;20297;-65
2023/05/04 08:34:02;;;;;;;1.73;1.63;;;;;;;;;;5016601;28;20605;-65
2023/05/04 08:36:31;;;;;;;1.58;1.45;;;;;;;;;;5015601;28;20286;-65
2023/05/04 08:38:58;;;;;;;1.70;1.60;;;;;;;;;;5016807;28;20206;-65
2023/05/04 08:41:26;;;;;;;1.50;1.40;;;;;;;;;;5015557;28;20206;-65
2023/05/04 08:43:53;;;;;;;1.50;1.40;;;;;;;;;;5015779;28;20206;-65
2023/05/04 08:46:21;;;;;;;1.60;1.50;;;;;;;;;;5015766;28;20206;-65
2023/05/04 08:48:49;;;;;;;1.60;1.48;;;;;;;;;;5015319;28;20753;-65
2023/05/04 08:51:16;;;;;;;1.70;1.60;;;;;;;;;;5015946;28;20206;-65
2023/05/04 08:53:45;;;;;;;1.63;1.50;;;;;;;;;;5015065;28;20210;-65
2023/05/04 08:56:15;;;;;;;1.75;1.65;;;;;;;;;;5015394;28;20311;-65
2023/05/04 08:58:47;;;;;;;1.70;1.60;;;;;;;;;;5015445;28;20264;-65
2023/05/04 09:01:16;;;;;;;1.60;1.50;;;;;;;;;;5016103;28;20226;-65
2023/05/04 09:03:44;;;;;;;1.85;1.65;;;;;;;;;;5015115;28;20321;-65
2023/05/04 09:06:12;;;;;;;1.83;1.73;;;;;;;;;;5014896;28;20300;-65
2023/05/04 09:08:39;;;;;;;1.73;1.63;;;;;;;;;;5015820;28;20209;-65
2023/05/04 09:11:08;;;;;;;1.70;1.60;;;;;;;;;;5015096;28;20198;-65
2023/05/04 09:13:36;;;;;;;1.60;1.50;;;;;;;;;;5015336;28;20238;-65
2023/05/04 09:16:03;;;;;;;2.85;1.88;;;;;;;;;;5014270;28;20837;-65
2023/05/04 09:18:38;;;;;;;1.73;1.63;;;;;;;;;;5014848;28;20226;-65
2023/05/04 09:21:06;;;;;;;1.90;1.80;;;;;;;;;;5014375;28;20418;-65
2023/05/04 09:23:34;;;;;;;1.73;1.63;;;;;;;;;;5015466;28;20213;-65
2023/05/04 09:26:01;;;;;;;1.90;1.80;;;;;;;;;;5014752;28;20622;-65
2023/05/04 09:28:37;;;;;;;2.83;1.70;;;;;;;;;;5015373;28;20210;-65
2023/05/04 09:31:06;;;;;;;1.80;1.70;;;;;;;;;;5014505;28;20303;-65
2023/05/04 09:33:34;;;;;;;2.00;1.90;;;;;;;;;;5014625;28;20202;-65
2023/05/04 09:36:13;;;;;;;2.17;1.63;;;;;;;;;;5014366;28;20305;-65
2023/05/04 09:38:41;;;;;;;2.10;2.00;;;;;;;;;;5014909;28;20238;-65
2023/05/04 09:41:08;;;;;;;2.13;1.90;;;;;;;;;;5014334;28;20237;-65
2023/05/04 09:43:40;;;;;;;2.05;1.83;;;;;;;;;;5014548;28;20258;-65
2023/05/04 09:46:08;;;;;;;3.08;1.85;;;;;;;;;;5013889;28;20206;-65
2023/05/04 09:48:36;;;;;;;1.98;1.88;;;;;;;;;;5014412;28;20610;-65
2023/05/04 09:51:05;;;;;;;1.88;1.77;;;;;;;;;;5013992;28;20785;-65
2023/05/04 09:53:32;;;;;;;2.30;2.10;;;;;;;;;;5014405;28;20207;-65
2023/05/04 09:56:05;;;;;;;1.73;1.63;;;;;;;;;;5013950;28;20240;-65
2023/05/04 09:58:33;;;;;;;2.47;2.03;;;;;;;;;;5013152;28;20261;-65
2023/05/04 10:01:02;;;;;;;1.90;1.80;;;;;;;;;;5013531;28;20198;-65
2023/05/04 10:03:30;;;;;;;2.08;1.88;;;;;;;;;;5014300;28;20586;-65
2023/05/04 10:05:58;;;;;;;2.03;1.80;;;;;;;;;;5013789;28;20661;-65
2023/05/04 10:08:26;;;;;;;1.83;1.70;;;;;;;;;;5013309;28;20202;-65
2023/05/04 10:10:53;;;;;;;1.90;1.80;;;;;;;;;;5014218;28;20292;-65
2023/05/04 10:13:21;;;;;;;1.80;1.70;;;;;;;;;;5014177;28;20257;-65
2023/05/04 10:15:54;;;;;;;1.80;1.70;;;;;;;;;;5014308;28;20210;-65
2023/05/04 10:18:26;;;;;;;1.80;1.70;;;;;;;;;;5013665;28;20237;-65
2023/05/04 10:21:07;;;;;;;1.90;1.80;;;;;;;;;;5013681;28;20209;-65
2023/05/04 10:23:53;;;;;;;2.17;1.95;;;;;;;;;;5014406;28;20284;-65
2023/05/04 10:26:34;;;;;;;2.00;1.88;;;;;;;;;;5014337;28;20217;-65
2023/05/04 10:29:08;;;;;;;2.00;1.90;;;;;;;;;;5012837;28;20210;-65
2023/05/04 10:31:40;;;;;;;2.20;1.80;;;;;;;;;;5013407;28;20206;-65
2023/05/04 10:34:09;;;;;;;1.70;1.60;;;;;;;;;;5013543;28;20742;-65
2023/05/04 10:36:37;;;;;;;1.73;1.63;;;;;;;;;;5015462;28;20206;-65
2023/05/04 10:39:05;;;;;;;1.92;1.83;;;;;;;;;;5018001;28;20258;-65
2023/05/04 10:41:32;;;;;;;1.70;1.60;;;;;;;;;;5018086;28;20210;-65
2023/05/04 10:44:08;;;;;;;2.38;1.70;;;;;;;;;;5017158;28;20237;-65
2023/05/04 10:46:36;;;;;;;1.85;1.75;;;;;;;;;;5017432;28;20718;-65
2023/05/04 10:49:03;;;;;;;2.13;1.92;;;;;;;;;;5017312;28;20305;-64
2023/05/04 10:51:34;;;;;;;1.90;1.70;;;;;;;;;;5016733;28;20268;-65
2023/05/04 10:54:02;;;;;;;1.50;1.40;;;;;;;;;;5016983;28;20312;-65
2023/05/04 10:56:29;;;;;;;1.75;1.65;;;;;;;;;;5016857;28;20202;-65
2023/05/04 10:58:57;;;;;;;1.67;1.58;;;;;;;;;;5017622;28;20240;-65
2023/05/04 11:01:24;;;;;;;1.77;1.67;;;;;;;;;;5017453;28;20789;-65
2023/05/04 11:03:52;;;;;;;1.75;1.65;;;;;;;;;;5017353;28;20210;-65
2023/05/04 11:06:20;;;;;;;1.80;1.70;;;;;;;;;;5016049;28;20210;-65
2023/05/04 11:08:49;;;;;;;1.70;1.60;;;;;;;;;;5017026;28;20211;-65
2023/05/04 11:11:17;;;;;;;1.50;1.40;;;;;;;;;;5017071;28;20210;-65
2023/05/04 11:13:46;;;;;;;1.63;1.52;;;;;;;;;;5016541;28;20238;-65
2023/05/04 11:16:13;;;;;;;1.80;1.70;;;;;;;;;;5016218;28;20209;-65
2023/05/04 11:18:41;;;;;;;1.83;1.60;;;;;;;;;;5016557;28;20234;-65
2023/05/04 11:21:08;;;;;;;1.95;1.83;;;;;;;;;;5016171;28;20208;-65
2023/05/04 11:23:40;;;;;;;1.67;1.58;;;;;;;;;;5016211;28;20203;-65
2023/05/04 11:26:11;;;;;;;2.08;1.90;;;;;;;;;;5016560;28;20213;-65
2023/05/04 11:28:39;;;;;;;1.90;1.80;;;;;;;;;;5016371;28;20305;-65
2023/05/04 11:31:13;;;;;;;1.80;1.70;;;;;;;;;;5016452;28;20202;-65
2023/05/04 11:33:45;;;;;;;1.90;1.63;;;;;;;;;;5016649;28;20245;-65
2023/05/04 11:36:12;;;;;;;1.77;1.67;;;;;;;;;;5016241;28;20206;-65
2023/05/04 11:38:40;;;;;;;1.65;1.55;;;;;;;;;;5015929;28;20257;-65
2023/05/04 11:41:07;;;;;;;1.67;1.55;;;;;;;;;;5016386;28;20217;-65
2023/05/04 11:43:36;;;;;;;1.90;1.80;;;;;;;;;;5015342;28;20202;-65
2023/05/04 11:46:04;;;;;;;1.60;1.50;;;;;;;;;;5016299;28;20214;-65
2023/05/04 11:48:32;;;;;;;1.85;1.60;;;;;;;;;;5015115;28;20205;-65
2023/05/04 11:50:59;;;;;;;1.58;1.48;;;;;;;;;;5015289;28;20210;-65
2023/05/04 11:53:27;;;;;;;1.75;1.60;;;;;;;;;;5016393;28;20463;-65
2023/05/04 11:55:56;;;;;;;1.63;1.52;;;;;;;;;;5016790;28;20581;-65
2023/05/04 11:58:26;;;;;;;1.42;1.33;;;;;;;;;;5016111;28;20329;-65
2023/05/04 12:00:57;;;;;;;1.65;1.55;;;;;;;;;;5015975;28;20207;-65
2023/05/04 12:03:26;;;;;;;1.60;1.50;;;;;;;;;;5015438;28;20214;-65
2023/05/04 12:05:54;;;;;;;1.50;1.40;;;;;;;;;;5015848;28;20206;-65
2023/05/04 12:08:26;;;;;;;1.80;1.70;;;;;;;;;;5016026;28;20678;-65
2023/05/04 12:11:08;;;;;;;1.60;1.50;;;;;;;;;;5015688;28;20500;-65
2023/05/04 12:13:35;;;;;;;1.63;1.25;;;;;;;;;;5015036;28;20520;-65
2023/05/04 12:16:10;;;;;;;1.55;1.45;;;;;;;;;;5015574;28;20233;-65
2023/05/04 12:18:37;;;;;;;1.50;1.40;;;;;;;;;;5015730;28;20226;-65
2023/05/04 12:21:09;;;;;;;1.52;1.42;;;;;;;;;;5015240;28;20207;-65
2023/05/04 12:23:36;;;;;;;1.40;1.30;;;;;;;;;;5014273;28;20241;-65
2023/05/04 12:26:04;;;;;;;1.45;1.35;;;;;;;;;;5015062;28;20207;-65
2023/05/04 12:28:31;;;;;;;1.48;1.38;;;;;;;;;;5015904;28;20594;-65
2023/05/04 12:30:59;;;;;;;1.50;1.40;;;;;;;;;;5014619;28;20202;-65
2023/05/04 12:33:28;;;;;;;1.50;1.40;;;;;;;;;;5014644;28;20206;-65
2023/05/04 12:35:56;;;;;;;1.40;1.30;;;;;;;;;;5014309;28;20209;-65
2023/05/04 12:38:24;;;;;;;1.35;1.23;;;;;;;;;;5014587;28;20218;-65
2023/05/04 12:40:51;;;;;;;1.77;1.67;;;;;;;;;;5015310;28;20206;-65
2023/05/04 12:43:21;;;;;;;1.50;1.40;;;;;;;;;;5014848;28;20206;-65
2023/05/04 12:45:49;;;;;;;1.40;1.30;;;;;;;;;;5014762;28;20525;-65
2023/05/04 12:48:17;;;;;;;1.50;1.40;;;;;;;;;;5014469;28;20206;-65
2023/05/04 12:50:46;;;;;;;1.30;1.30;;;;;;;;;;5014724;28;20234;-65
2023/05/04 12:53:13;;;;;;;1.40;1.30;;;;;;;;;;5015060;28;20599;-65
2023/05/04 12:55:41;;;;;;;1.45;1.35;;;;;;;;;;5015297;28;20511;-64
2023/05/04 12:58:08;;;;;;;1.73;1.30;;;;;;;;;;5014148;28;20468;-64
2023/05/04 13:00:36;;;;;;;1.48;1.38;;;;;;;;;;5014206;28;20747;-64
2023/05/04 13:03:04;;;;;;;1.58;1.48;;;;;;;;;;5014226;28;20332;-64
2023/05/04 13:05:31;;;;;;;1.40;1.30;;;;;;;;;;5014716;28;20202;-64
2023/05/04 13:08:00;;;;;;;1.50;1.40;;;;;;;;;;5015494;28;20203;-64
2023/05/04 13:10:28;;;;;;;1.33;1.23;;;;;;;;;;5014719;28;20242;-64
2023/05/04 13:12:55;;;;;;;1.50;1.40;;;;;;;;;;5014418;28;20226;-64
2023/05/04 13:15:23;;;;;;;1.40;1.30;;;;;;;;;;5014111;28;20487;-64
2023/05/04 13:17:50;;;;;;;1.48;1.38;;;;;;;;;;5013482;28;20206;-64
2023/05/04 13:20:18;;;;;;;1.45;1.35;;;;;;;;;;5014357;28;20206;-64
2023/05/04 13:22:46;;;;;;;1.50;1.40;;;;;;;;;;5013936;28;20777;-64
2023/05/04 13:25:15;;;;;;;1.30;1.20;;;;;;;;;;5014168;28;20512;-64
2023/05/04 13:27:43;;;;;;;1.30;1.20;;;;;;;;;;5012893;28;20216;-64
2023/05/04 13:30:11;;;;;;;1.40;1.30;;;;;;;;;;5014677;28;20461;-64
2023/05/04 13:32:38;;;;;;;1.38;1.27;;;;;;;;;;5013589;28;20285;-64
2023/05/04 13:35:06;;;;;;;1.38;1.27;;;;;;;;;;5014337;28;20206;-65
2023/05/04 13:37:34;;;;;;;1.30;1.20;;;;;;;;;;5014738;28;20206;-65
2023/05/04 13:40:01;;;;;;;1.30;1.20;;;;;;;;;;5014041;28;20257;-65
2023/05/04 13:42:30;;;;;;;1.63;1.35;;;;;;;;;;5013415;28;20554;-65
2023/05/04 13:44:58;;;;;;;1.40;1.30;;;;;;;;;;5014310;28;20206;-65
2023/05/04 13:47:25;;;;;;;1.40;1.30;;;;;;;;;;5013791;28;20221;-64
2023/05/04 13:49:52;;;;;;;1.13;1.02;;;;;;;;;;5013487;28;20206;-64
2023/05/04 13:52:20;;;;;;;1.13;1.13;;;;;;;;;;5013077;28;20213;-64
2023/05/04 13:54:48;;;;;;;1.17;1.00;;;;;;;;;;5013309;28;20202;-64
2023/05/04 13:57:15;;;;;;;1.30;1.20;;;;;;;;;;5013668;28;20202;-64
2023/05/04 13:59:44;;;;;;;1.33;1.23;;;;;;;;;;5012920;28;20229;-65
2023/05/04 14:02:11;;;;;;;1.25;1.15;;;;;;;;;;5013881;28;20202;-65
2023/05/04 14:04:39;;;;;;;1.20;1.10;;;;;;;;;;5013780;28;20213;-65
2023/05/04 14:07:07;;;;;;;1.20;1.10;;;;;;;;;;5013792;28;20221;-65
2023/05/04 14:09:34;;;;;;;1.30;1.20;;;;;;;;;;5014010;28;20206;-65
2023/05/04 14:12:02;;;;;;;1.10;1.10;;;;;;;;;;5015870;28;20646;-65
2023/05/04 14:14:29;;;;;;;1.67;1.25;;;;;;;;;;5016497;28;20237;-65
2023/05/04 14:16:58;;;;;;;1.33;1.23;;;;;;;;;;5016488;28;20206;-65
2023/05/04 14:19:26;;;;;;;1.23;1.13;;;;;;;;;;5017172;28;20226;-65
2023/05/04 14:21:53;;;;;;;1.30;1.20;;;;;;;;;;5016742;28;20233;-65
2023/05/04 14:24:21;;;;;;;1.35;1.25;;;;;;;;;;5018155;28;20241;-65
2023/05/04 14:26:48;;;;;;;1.23;1.13;;;;;;;;;;5017316;28;20198;-65
2023/05/04 14:29:16;;;;;;;1.40;1.30;;;;;;;;;;5018075;28;20202;-65
2023/05/04 14:31:43;;;;;;;1.30;1.20;;;;;;;;;;5017811;28;20202;-65
2023/05/04 14:34:12;;;;;;;1.30;1.20;;;;;;;;;;5017659;28;20226;-65
2023/05/04 14:36:40;;;;;;;1.27;1.20;;;;;;;;;;5016141;28;20272;-65
2023/05/04 14:39:07;;;;;;;1.20;1.20;;;;;;;;;;5016146;28;20252;-65
2023/05/04 14:41:36;;;;;;;1.30;1.20;;;;;;;;;;5016251;28;20210;-65
2023/05/04 14:44:03;;;;;;;1.35;1.25;;;;;;;;;;5017142;28;20206;-65
2023/05/04 14:46:31;;;;;;;1.38;1.27;;;;;;;;;;5016639;28;20595;-65
2023/05/04 14:48:59;;;;;;;1.17;1.10;;;;;;;;;;5017578;28;20205;-65